Time;durP1;ratioP1;P1;durP2;ratioP2;P2;SDS_P1;SDS_P2;PMS_P1;PMS_P2;Temp;Humidity;BMP_temperature;BMP_pressure;BME280_temperature;BME280_humidity;BME280_pressure;Samples;Min_cycle;Max_cycle;Signal;HPM_P1;HPM_P2
2023/09/22 00:02:05;;;;;;;5.23;2.70;;;;;;;;;;5004157;28;20184;-71
2023/09/22 00:04:32;;;;;;;8.60;2.97;;;;;;;;;;5015527;28;20243;-71
2023/09/22 00:06:58;;;;;;;3.50;3.20;;;;;;;;;;4999613;28;20179;-71
2023/09/22 00:09:24;;;;;;;4.80;3.00;;;;;;;;;;5018972;28;20187;-71
2023/09/22 00:11:50;;;;;;;3.70;2.90;;;;;;;;;;5022558;28;20601;-71
2023/09/22 00:14:16;;;;;;;4.20;3.10;;;;;;;;;;5003272;28;20208;-71
2023/09/22 00:16:42;;;;;;;3.87;3.30;;;;;;;;;;5001635;28;20657;-71
2023/09/22 00:19:09;;;;;;;5.17;2.80;;;;;;;;;;5007552;28;20211;-71
2023/09/22 00:21:35;;;;;;;5.43;2.93;;;;;;;;;;5007704;28;20187;-71
2023/09/22 00:24:02;;;;;;;3.83;3.50;;;;;;;;;;4996351;28;20214;-70
2023/09/22 00:26:29;;;;;;;5.53;3.70;;;;;;;;;;5013885;28;20273;-70
2023/09/22 00:28:56;;;;;;;4.17;3.47;;;;;;;;;;5013990;28;20233;-71
2023/09/22 00:31:22;;;;;;;5.43;3.67;;;;;;;;;;5013834;28;20254;-71
2023/09/22 00:33:48;;;;;;;5.30;3.30;;;;;;;;;;4996134;28;20235;-70
2023/09/22 00:36:16;;;;;;;6.70;3.73;;;;;;;;;;4995881;28;20180;-71
2023/09/22 00:38:42;;;;;;;5.50;3.63;;;;;;;;;;5013654;28;20172;-71
2023/09/22 00:41:08;;;;;;;3.90;3.50;;;;;;;;;;4995688;28;20180;-71
2023/09/22 00:43:33;;;;;;;4.40;4.00;;;;;;;;;;5013482;28;20631;-71
2023/09/22 00:46:00;;;;;;;4.53;3.97;;;;;;;;;;5013220;28;20208;-71
2023/09/22 00:48:30;;;;;;;4.63;4.20;;;;;;;;;;4995730;28;20180;-71
2023/09/22 00:50:56;;;;;;;4.57;4.07;;;;;;;;;;4995621;28;20605;-71
2023/09/22 00:53:28;;;;;;;5.27;4.03;;;;;;;;;;5013063;28;20255;-70
2023/09/22 00:55:54;;;;;;;6.27;3.93;;;;;;;;;;4995187;28;20180;-70
2023/09/22 00:58:20;;;;;;;7.00;4.37;;;;;;;;;;4995191;28;20180;-71
2023/09/22 01:00:47;;;;;;;7.00;4.30;;;;;;;;;;4995046;28;20215;-70
2023/09/22 01:03:14;;;;;;;5.13;4.40;;;;;;;;;;5013074;28;20187;-71
2023/09/22 01:05:40;;;;;;;6.40;4.53;;;;;;;;;;5012559;28;20216;-70
2023/09/22 01:08:06;;;;;;;7.17;3.93;;;;;;;;;;5012542;28;20238;-71
2023/09/22 01:10:38;;;;;;;4.83;3.67;;;;;;;;;;5012623;28;20188;-70
2023/09/22 01:13:05;;;;;;;6.83;3.70;;;;;;;;;;4995013;28;20233;-71
2023/09/22 01:15:35;;;;;;;5.73;4.03;;;;;;;;;;4994925;28;20204;-70
2023/09/22 01:18:01;;;;;;;6.17;3.67;;;;;;;;;;5012833;28;20194;-70
2023/09/22 01:20:27;;;;;;;4.43;3.53;;;;;;;;;;4996958;28;20191;-70
2023/09/22 01:22:53;;;;;;;5.77;3.77;;;;;;;;;;4998368;28;20673;-70
2023/09/22 01:25:19;;;;;;;5.80;4.43;;;;;;;;;;5015845;28;20289;-70
2023/09/22 01:27:45;;;;;;;5.73;3.73;;;;;;;;;;4998311;28;20179;-70
2023/09/22 01:30:11;;;;;;;7.23;4.40;;;;;;;;;;4998328;28;20186;-70
2023/09/22 01:32:37;;;;;;;6.93;4.07;;;;;;;;;;5015875;28;20186;-70
2023/09/22 01:35:04;;;;;;;8.50;4.67;;;;;;;;;;4998083;28;20199;-70
2023/09/22 01:37:33;;;;;;;5.67;4.37;;;;;;;;;;5016299;28;20208;-70
2023/09/22 01:40:00;;;;;;;7.83;4.37;;;;;;;;;;5015811;28;20190;-70
2023/09/22 01:42:26;;;;;;;8.03;4.67;;;;;;;;;;4998164;28;20562;-70
2023/09/22 01:44:52;;;;;;;6.50;4.57;;;;;;;;;;5015563;28;20681;-70
2023/09/22 01:47:18;;;;;;;8.23;5.03;;;;;;;;;;5015652;28;20326;-70
2023/09/22 01:49:43;;;;;;;6.47;4.33;;;;;;;;;;5015448;28;20183;-70
2023/09/22 01:52:09;;;;;;;5.87;4.53;;;;;;;;;;5015611;28;20176;-70
2023/09/22 01:54:35;;;;;;;6.50;4.30;;;;;;;;;;5015631;28;20254;-70
2023/09/22 01:57:01;;;;;;;7.30;4.97;;;;;;;;;;5015610;28;20203;-70
2023/09/22 01:59:27;;;;;;;5.43;4.60;;;;;;;;;;5015598;28;20176;-71
2023/09/22 02:01:53;;;;;;;7.53;5.20;;;;;;;;;;5015660;28;20214;-70
2023/09/22 02:04:19;;;;;;;9.20;5.17;;;;;;;;;;5015102;28;20270;-70
2023/09/22 02:06:45;;;;;;;9.83;4.60;;;;;;;;;;5015579;28;20176;-70
2023/09/22 02:09:11;;;;;;;5.97;4.30;;;;;;;;;;5015741;28;20259;-70
2023/09/22 02:11:37;;;;;;;10.50;4.73;;;;;;;;;;4997810;28;20707;-70
2023/09/22 02:14:03;;;;;;;5.73;4.07;;;;;;;;;;5015624;28;20200;-70
2023/09/22 02:16:29;;;;;;;6.80;4.90;;;;;;;;;;5015067;28;20305;-70
2023/09/22 02:18:56;;;;;;;6.83;4.37;;;;;;;;;;5014989;28;20561;-70
2023/09/22 02:21:22;;;;;;;8.40;5.00;;;;;;;;;;5014925;28;20210;-70
2023/09/22 02:23:48;;;;;;;7.43;5.00;;;;;;;;;;5014900;28;20231;-70
2023/09/22 02:26:14;;;;;;;5.43;4.67;;;;;;;;;;5014911;28;20180;-70
2023/09/22 02:28:40;;;;;;;6.40;4.70;;;;;;;;;;5014865;28;20180;-70
2023/09/22 02:31:06;;;;;;;8.20;4.40;;;;;;;;;;5014470;28;20183;-70
2023/09/22 02:33:32;;;;;;;7.67;4.63;;;;;;;;;;5014933;28;20183;-70
2023/09/22 02:35:59;;;;;;;9.67;5.40;;;;;;;;;;5014938;28;20184;-68
2023/09/22 02:38:26;;;;;;;9.70;4.30;;;;;;;;;;5014838;28;20190;-70
2023/09/22 02:40:52;;;;;;;6.17;4.03;;;;;;;;;;4997096;28;20267;-70
2023/09/22 02:43:17;;;;;;;7.80;4.27;;;;;;;;;;5014519;28;20266;-70
2023/09/22 02:45:43;;;;;;;10.30;4.17;;;;;;;;;;5014639;28;20203;-70
2023/09/22 02:48:10;;;;;;;5.80;3.50;;;;;;;;;;4996907;28;20194;-70
2023/09/22 02:50:37;;;;;;;7.83;4.20;;;;;;;;;;4996703;28;20669;-70
2023/09/22 02:53:03;;;;;;;7.30;4.03;;;;;;;;;;5014664;28;20206;-70
2023/09/22 02:55:29;;;;;;;6.30;3.80;;;;;;;;;;5014215;28;20208;-70
2023/09/22 02:57:55;;;;;;;6.50;4.00;;;;;;;;;;5014534;28;20546;-70
2023/09/22 03:00:22;;;;;;;7.30;4.00;;;;;;;;;;4996699;28;20322;-70
2023/09/22 03:02:48;;;;;;;6.63;3.67;;;;;;;;;;5014831;28;20199;-70
2023/09/22 03:05:15;;;;;;;6.67;3.70;;;;;;;;;;5013768;28;20307;-70
2023/09/22 03:07:41;;;;;;;5.97;3.90;;;;;;;;;;5014053;28;20204;-70
2023/09/22 03:10:10;;;;;;;9.23;4.53;;;;;;;;;;5013967;28;20175;-70
2023/09/22 03:12:36;;;;;;;6.70;3.80;;;;;;;;;;5014413;28;20221;-70
2023/09/22 03:15:03;;;;;;;6.17;4.10;;;;;;;;;;5013868;28;20281;-70
2023/09/22 03:17:29;;;;;;;9.50;4.90;;;;;;;;;;4996293;28;20188;-70
2023/09/22 03:19:58;;;;;;;5.73;4.50;;;;;;;;;;5013730;28;20183;-70
2023/09/22 03:22:25;;;;;;;7.90;4.53;;;;;;;;;;5013731;28;20607;-70
2023/09/22 03:24:51;;;;;;;8.17;4.60;;;;;;;;;;5013754;28;20217;-70
2023/09/22 03:27:17;;;;;;;10.03;4.93;;;;;;;;;;4995962;28;20631;-70
2023/09/22 03:29:43;;;;;;;10.47;5.13;;;;;;;;;;4996004;28;20213;-71
2023/09/22 03:32:09;;;;;;;11.23;4.83;;;;;;;;;;4995884;28;20180;-70
2023/09/22 03:34:35;;;;;;;8.17;5.00;;;;;;;;;;4995833;28;20577;-70
2023/09/22 03:37:08;;;;;;;7.13;4.57;;;;;;;;;;4995834;28;20190;-71
2023/09/22 03:39:34;;;;;;;8.77;5.77;;;;;;;;;;4995810;28;20649;-71
2023/09/22 03:42:00;;;;;;;9.10;5.33;;;;;;;;;;5013002;28;20211;-71
2023/09/22 03:44:26;;;;;;;11.33;5.03;;;;;;;;;;4995516;28;20243;-70
2023/09/22 03:46:52;;;;;;;11.67;5.97;;;;;;;;;;5013619;28;20191;-70
2023/09/22 03:49:18;;;;;;;10.37;6.03;;;;;;;;;;5013327;28;20179;-70
2023/09/22 03:51:45;;;;;;;8.73;5.60;;;;;;;;;;5013704;28;20175;-70
2023/09/22 03:54:11;;;;;;;11.27;5.00;;;;;;;;;;4995630;28;20207;-71
2023/09/22 03:56:37;;;;;;;9.70;5.23;;;;;;;;;;5013309;28;20184;-70
2023/09/22 03:59:05;;;;;;;12.60;6.30;;;;;;;;;;4995755;28;20303;-70
2023/09/22 04:01:32;;;;;;;9.73;5.70;;;;;;;;;;5013573;28;20285;-71
2023/09/22 04:03:58;;;;;;;10.70;5.67;;;;;;;;;;4995583;28;20231;-71
2023/09/22 04:06:24;;;;;;;10.93;5.20;;;;;;;;;;5013831;28;20163;-71
2023/09/22 04:08:51;;;;;;;7.80;4.77;;;;;;;;;;5013049;28;20176;-70
2023/09/22 04:11:17;;;;;;;6.17;4.60;;;;;;;;;;5013026;28;20211;-70
2023/09/22 04:13:44;;;;;;;7.53;4.17;;;;;;;;;;5013267;28;20188;-70
2023/09/22 04:16:09;;;;;;;8.13;3.80;;;;;;;;;;5013093;28;20485;-70
2023/09/22 04:18:36;;;;;;;10.97;3.90;;;;;;;;;;4995651;28;20172;-71
2023/09/22 04:21:04;;;;;;;8.13;3.67;;;;;;;;;;5014000;28;20175;-70
2023/09/22 04:23:31;;;;;;;4.47;2.90;;;;;;;;;;5013122;28;20168;-71
2023/09/22 04:26:02;;;;;;;5.40;3.37;;;;;;;;;;5013218;28;20196;-70
2023/09/22 04:28:28;;;;;;;7.37;3.60;;;;;;;;;;5012921;28;20587;-70
2023/09/22 04:30:55;;;;;;;5.23;3.40;;;;;;;;;;5013632;28;20247;-70
2023/09/22 04:33:21;;;;;;;9.67;3.80;;;;;;;;;;5012995;28;20176;-70
2023/09/22 04:35:50;;;;;;;9.03;4.50;;;;;;;;;;4995689;28;20187;-70
2023/09/22 04:38:17;;;;;;;7.87;4.03;;;;;;;;;;5013105;28;20184;-70
2023/09/22 04:40:44;;;;;;;8.83;4.50;;;;;;;;;;5012970;28;20259;-70
2023/09/22 04:43:13;;;;;;;9.43;4.77;;;;;;;;;;4995350;28;20261;-71
2023/09/22 04:45:40;;;;;;;8.17;4.80;;;;;;;;;;5012822;28;20662;-70
2023/09/22 04:48:07;;;;;;;12.17;5.60;;;;;;;;;;4995087;28;20660;-70
2023/09/22 04:50:33;;;;;;;14.30;5.90;;;;;;;;;;4995291;28;20642;-70
2023/09/22 04:53:00;;;;;;;11.50;5.53;;;;;;;;;;4995155;28;20286;-70
2023/09/22 04:55:26;;;;;;;7.83;5.27;;;;;;;;;;4998713;28;20215;-70
2023/09/22 04:57:52;;;;;;;9.53;5.80;;;;;;;;;;5016590;28;20176;-70
2023/09/22 05:00:24;;;;;;;12.60;7.20;;;;;;;;;;5016372;28;20179;-70
2023/09/22 05:02:50;;;;;;;19.80;15.07;;;;;;;;;;4998806;28;20270;-69
2023/09/22 05:05:19;;;;;;;16.60;9.93;;;;;;;;;;5039244;23;20314;-67
2023/09/22 05:07:45;;;;;;;13.67;8.03;;;;;;;;;;5016505;28;20168;-68
2023/09/22 05:10:11;;;;;;;8.70;6.67;;;;;;;;;;5014799;28;20207;-68
2023/09/22 05:12:37;;;;;;;11.13;5.80;;;;;;;;;;5016613;28;20527;-68
2023/09/22 05:15:04;;;;;;;9.60;5.00;;;;;;;;;;5016126;28;20679;-68
2023/09/22 05:17:30;;;;;;;8.40;4.77;;;;;;;;;;5016489;28;20549;-68
2023/09/22 05:19:58;;;;;;;12.87;4.43;;;;;;;;;;5014710;28;20180;-67
2023/09/22 05:22:24;;;;;;;10.40;4.27;;;;;;;;;;5014704;28;20567;-68
2023/09/22 05:24:50;;;;;;;7.40;4.10;;;;;;;;;;5014548;28;20207;-67
2023/09/22 05:27:16;;;;;;;11.03;4.40;;;;;;;;;;5015976;28;20208;-67
2023/09/22 05:29:42;;;;;;;4.50;3.60;;;;;;;;;;5015988;28;20259;-67
2023/09/22 05:32:12;;;;;;;6.37;3.20;;;;;;;;;;5016558;28;20172;-69
2023/09/22 05:34:39;;;;;;;7.00;3.50;;;;;;;;;;5016075;28;20227;-66
2023/09/22 05:37:05;;;;;;;11.00;4.03;;;;;;;;;;5014703;28;20676;-67
2023/09/22 05:39:31;;;;;;;6.93;4.23;;;;;;;;;;5015585;28;20270;-67
2023/09/22 05:41:58;;;;;;;7.80;5.00;;;;;;;;;;5014311;28;20190;-66
2023/09/22 05:44:24;;;;;;;6.83;4.10;;;;;;;;;;5015480;28;20711;-67
2023/09/22 05:46:53;;;;;;;11.90;6.60;;;;;;;;;;5015556;28;20175;-70
2023/09/22 05:49:19;;;;;;;7.03;4.17;;;;;;;;;;5015906;28;20242;-66
2023/09/22 05:51:45;;;;;;;8.43;4.37;;;;;;;;;;5015722;28;20645;-66
2023/09/22 05:54:11;;;;;;;14.83;7.63;;;;;;;;;;5013948;28;20638;-68
2023/09/22 05:56:39;;;;;;;11.10;6.83;;;;;;;;;;5015259;28;20183;-68
2023/09/22 05:59:06;;;;;;;13.93;7.10;;;;;;;;;;5013942;28;20191;-68
2023/09/22 06:01:35;;;;;;;12.83;6.60;;;;;;;;;;5015474;28;20551;-68
2023/09/22 06:04:04;;;;;;;10.23;5.07;;;;;;;;;;5014939;28;20357;-68
2023/09/22 06:06:30;;;;;;;9.40;4.57;;;;;;;;;;5014810;28;20164;-67
2023/09/22 06:08:56;;;;;;;9.10;5.30;;;;;;;;;;5013677;28;20325;-67
2023/09/22 06:11:22;;;;;;;12.20;7.30;;;;;;;;;;5015085;28;20661;-67
2023/09/22 06:13:48;;;;;;;9.27;5.40;;;;;;;;;;5015183;28;20172;-67
2023/09/22 06:16:14;;;;;;;10.60;5.03;;;;;;;;;;5013649;28;20176;-67
2023/09/22 06:18:40;;;;;;;8.33;4.60;;;;;;;;;;5013597;28;20206;-66
2023/09/22 06:21:06;;;;;;;9.87;4.47;;;;;;;;;;5014780;28;20184;-67
2023/09/22 06:23:32;;;;;;;9.13;3.60;;;;;;;;;;5014772;28;20184;-67
2023/09/22 06:26:02;;;;;;;7.33;3.50;;;;;;;;;;5013396;28;20204;-67
2023/09/22 06:28:29;;;;;;;6.80;3.47;;;;;;;;;;5014998;28;20187;-66
2023/09/22 06:30:59;;;;;;;5.20;3.03;;;;;;;;;;5013329;28;20275;-66
2023/09/22 06:33:25;;;;;;;4.57;2.87;;;;;;;;;;5014493;28;20216;-67
2023/09/22 06:35:56;;;;;;;11.10;3.03;;;;;;;;;;5013112;28;20212;-67
2023/09/22 06:38:22;;;;;;;7.30;5.17;;;;;;;;;;5013267;28;20176;-67
2023/09/22 06:40:49;;;;;;;6.97;5.40;;;;;;;;;;5014421;28;20234;-67
2023/09/22 06:43:15;;;;;;;4.70;3.40;;;;;;;;;;5014422;28;20183;-67
2023/09/22 06:45:41;;;;;;;7.03;3.07;;;;;;;;;;5014306;28;20218;-67
2023/09/22 06:48:07;;;;;;;6.63;3.43;;;;;;;;;;5013096;28;20642;-68
2023/09/22 06:50:37;;;;;;;8.67;3.50;;;;;;;;;;5014050;28;20638;-67
2023/09/22 06:53:03;;;;;;;6.43;3.80;;;;;;;;;;5014851;28;20600;-67
2023/09/22 06:55:30;;;;;;;7.80;3.43;;;;;;;;;;5012864;28;20701;-66
2023/09/22 06:57:58;;;;;;;4.50;2.80;;;;;;;;;;5014382;28;20176;-67
2023/09/22 07:00:28;;;;;;;4.53;3.17;;;;;;;;;;5012782;28;20215;-68
2023/09/22 07:02:54;;;;;;;9.63;3.23;;;;;;;;;;5012813;28;20183;-67
2023/09/22 07:05:20;;;;;;;8.07;3.83;;;;;;;;;;5012532;28;20595;-68
2023/09/22 07:07:46;;;;;;;4.00;2.90;;;;;;;;;;5012641;28;20249;-68
2023/09/22 07:10:13;;;;;;;8.37;2.90;;;;;;;;;;5012657;28;20211;-67
2023/09/22 07:12:39;;;;;;;3.37;2.53;;;;;;;;;;5014109;28;20183;-66
2023/09/22 07:15:06;;;;;;;5.80;3.50;;;;;;;;;;5013816;28;20203;-67
2023/09/22 07:17:33;;;;;;;5.43;2.73;;;;;;;;;;5013758;28;20643;-67
2023/09/22 07:20:00;;;;;;;4.17;2.30;;;;;;;;;;5013823;28;20294;-67
2023/09/22 07:22:52;;;;;;;;;;;;;;;;;;;;;
2023/09/22 07:25:20;;;;;;;5.57;2.77;;;;;;;;;;5015200;28;20211;-68
2023/09/22 07:27:46;;;;;;;4.97;2.40;;;;;;;;;;5012668;28;20230;-68
2023/09/22 07:30:13;;;;;;;4.67;2.67;;;;;;;;;;5013629;28;20168;-68
2023/09/22 07:32:39;;;;;;;3.83;2.27;;;;;;;;;;5012464;28;20214;-68
2023/09/22 07:35:05;;;;;;;4.57;2.60;;;;;;;;;;5013664;28;20253;-67
2023/09/22 07:37:31;;;;;;;3.80;2.20;;;;;;;;;;5013536;28;20180;-67
2023/09/22 07:39:57;;;;;;;5.20;2.30;;;;;;;;;;5013514;28;20350;-67
2023/09/22 07:42:26;;;;;;;6.50;2.27;;;;;;;;;;5013522;28;20198;-67
2023/09/22 07:44:52;;;;;;;3.23;1.67;;;;;;;;;;5012134;28;20207;-68
2023/09/22 07:47:18;;;;;;;4.33;2.13;;;;;;;;;;5012177;28;20224;-68
2023/09/22 07:49:46;;;;;;;3.73;2.20;;;;;;;;;;5012832;28;20279;-67
2023/09/22 07:52:13;;;;;;;4.80;1.50;;;;;;;;;;5012368;28;20265;-67
2023/09/22 07:54:39;;;;;;;4.60;1.90;;;;;;;;;;5012351;28;20323;-67
2023/09/22 07:57:05;;;;;;;2.67;1.83;;;;;;;;;;5013948;28;20226;-67
2023/09/22 07:59:31;;;;;;;2.43;1.70;;;;;;;;;;5012702;28;20188;-67
2023/09/22 08:02:02;;;;;;;3.17;1.77;;;;;;;;;;5020586;28;20176;-67
2023/09/22 08:04:28;;;;;;;3.47;1.90;;;;;;;;;;5022055;28;20234;-67
2023/09/22 08:06:54;;;;;;;6.83;2.00;;;;;;;;;;5016983;28;20219;-67
2023/09/22 08:09:21;;;;;;;6.00;1.70;;;;;;;;;;5014650;28;20246;-67
2023/09/22 08:11:47;;;;;;;2.33;1.47;;;;;;;;;;5012723;28;20262;-68
2023/09/22 08:14:13;;;;;;;5.20;1.60;;;;;;;;;;5013969;28;20255;-67
2023/09/22 08:16:39;;;;;;;3.47;1.47;;;;;;;;;;5014159;28;20180;-69
2023/09/22 08:19:10;;;;;;;1.97;1.30;;;;;;;;;;5013292;28;20206;-68
2023/09/22 08:21:37;;;;;;;2.90;1.73;;;;;;;;;;5012216;28;20697;-69
2023/09/22 08:24:03;;;;;;;4.20;1.60;;;;;;;;;;5012760;28;20246;-69
2023/09/22 08:26:29;;;;;;;3.27;1.60;;;;;;;;;;5013558;28;20172;-68
2023/09/22 08:28:55;;;;;;;4.83;1.90;;;;;;;;;;5014472;28;20179;-68
2023/09/22 08:31:21;;;;;;;4.63;1.83;;;;;;;;;;5017583;28;20538;-68
2023/09/22 08:33:47;;;;;;;5.20;1.50;;;;;;;;;;5017262;28;20267;-69
2023/09/22 08:36:14;;;;;;;2.37;1.60;;;;;;;;;;5017292;28;20183;-69
2023/09/22 08:38:40;;;;;;;2.13;1.53;;;;;;;;;;5017027;28;20180;-69
2023/09/22 08:41:06;;;;;;;5.07;1.70;;;;;;;;;;5015523;28;20171;-68
2023/09/22 08:43:35;;;;;;;2.77;1.60;;;;;;;;;;5017395;28;20185;-69
2023/09/22 08:46:01;;;;;;;4.03;1.90;;;;;;;;;;5016580;28;20689;-67
2023/09/22 08:48:28;;;;;;;1.93;1.40;;;;;;;;;;5016769;28;20646;-69
2023/09/22 08:50:54;;;;;;;2.30;1.37;;;;;;;;;;5015462;28;20219;-68
2023/09/22 08:53:20;;;;;;;4.20;1.30;;;;;;;;;;5015882;28;20610;-68
2023/09/22 08:55:49;;;;;;;1.50;1.30;;;;;;;;;;5015834;28;20231;-69
2023/09/22 08:58:16;;;;;;;4.87;1.73;;;;;;;;;;5016968;28;20182;-68
2023/09/22 09:00:42;;;;;;;3.43;1.63;;;;;;;;;;5016793;28;20183;-69
2023/09/22 09:03:09;;;;;;;3.00;1.47;;;;;;;;;;5015425;28;20656;-67
2023/09/22 09:05:35;;;;;;;3.17;1.23;;;;;;;;;;5015233;28;20230;-67
2023/09/22 09:08:24;;;;;;;1.97;1.37;;;;;;;;;;5016676;28;20186;-70
2023/09/22 09:10:50;;;;;;;4.27;1.50;;;;;;;;;;5016473;28;20183;-68
2023/09/22 09:13:17;;;;;;;1.80;1.30;;;;;;;;;;5014977;28;20184;-68
2023/09/22 09:15:50;;;;;;;3.67;1.27;;;;;;;;;;5016740;28;20226;-69
2023/09/22 09:18:17;;;;;;;2.83;1.60;;;;;;;;;;5016662;28;20662;-67
2023/09/22 09:20:43;;;;;;;3.23;1.60;;;;;;;;;;5015126;28;20188;-68
2023/09/22 09:23:23;;;;;;;2.10;1.40;;;;;;;;;;5017097;28;20528;-68
2023/09/22 09:25:50;;;;;;;2.47;1.40;;;;;;;;;;5015389;28;20272;-68
2023/09/22 09:28:17;;;;;;;2.50;1.50;;;;;;;;;;5016624;28;20211;-69
2023/09/22 09:30:59;;;;;;;2.47;1.63;;;;;;;;;;5015587;28;20180;-68
2023/09/22 09:33:26;;;;;;;4.83;1.77;;;;;;;;;;5015405;28;20184;-69
2023/09/22 09:35:54;;;;;;;2.97;1.47;;;;;;;;;;5016665;28;20206;-69
2023/09/22 09:38:20;;;;;;;2.70;1.70;;;;;;;;;;5016886;28;20180;-68
2023/09/22 09:40:46;;;;;;;4.90;1.37;;;;;;;;;;5013821;28;20183;-68
2023/09/22 09:43:13;;;;;;;2.87;1.43;;;;;;;;;;5015182;28;20186;-69
2023/09/22 09:45:42;;;;;;;1.47;1.20;;;;;;;;;;5017159;28;20669;-69
2023/09/22 09:48:10;;;;;;;4.13;1.63;;;;;;;;;;5017826;28;20176;-68
2023/09/22 09:50:37;;;;;;;4.33;1.60;;;;;;;;;;5016926;28;20188;-68
2023/09/22 09:53:11;;;;;;;3.27;1.50;;;;;;;;;;5015965;28;20180;-69
2023/09/22 09:55:37;;;;;;;2.23;1.40;;;;;;;;;;5018107;28;20250;-68
2023/09/22 09:58:04;;;;;;;2.00;1.10;;;;;;;;;;5020158;28;20180;-67
2023/09/22 10:00:35;;;;;;;3.60;1.30;;;;;;;;;;5018705;28;20180;-69
2023/09/22 10:03:01;;;;;;;2.33;1.60;;;;;;;;;;5019304;28;20172;-68
2023/09/22 10:05:27;;;;;;;4.20;1.70;;;;;;;;;;5020225;28;20215;-69
2023/09/22 10:07:56;;;;;;;3.70;1.40;;;;;;;;;;5019522;28;20183;-68
2023/09/22 10:10:22;;;;;;;2.90;1.70;;;;;;;;;;5014904;28;20183;-69
2023/09/22 10:12:48;;;;;;;2.57;1.43;;;;;;;;;;5015647;28;20183;-68
2023/09/22 10:15:15;;;;;;;2.77;1.57;;;;;;;;;;5019004;28;20234;-68
2023/09/22 10:17:41;;;;;;;2.80;1.33;;;;;;;;;;5016600;28;20665;-68
2023/09/22 10:20:11;;;;;;;4.17;1.43;;;;;;;;;;5014183;28;20194;-68
2023/09/22 10:22:38;;;;;;;3.50;1.50;;;;;;;;;;5018387;28;20251;-67
2023/09/22 10:25:13;;;;;;;2.37;1.30;;;;;;;;;;5018954;28;20269;-67
2023/09/22 10:27:59;;;;;;;3.40;1.50;;;;;;;;;;5019938;28;20183;-68
2023/09/22 10:30:45;;;;;;;2.23;1.80;;;;;;;;;;5017371;28;20179;-68
2023/09/22 10:33:17;;;;;;;4.10;1.50;;;;;;;;;;5013714;28;20579;-68
2023/09/22 10:35:43;;;;;;;3.70;1.60;;;;;;;;;;5014724;28;20253;-68
2023/09/22 10:38:12;;;;;;;2.23;1.50;;;;;;;;;;5013708;28;20738;-68
2023/09/22 10:40:41;;;;;;;1.73;1.33;;;;;;;;;;5019360;28;20722;-68
2023/09/22 10:43:07;;;;;;;1.90;1.10;;;;;;;;;;5024172;28;20183;-68
2023/09/22 10:45:33;;;;;;;6.87;1.80;;;;;;;;;;5017627;28;20211;-68
2023/09/22 10:48:00;;;;;;;4.37;1.20;;;;;;;;;;5013670;28;20203;-68
2023/09/22 10:50:27;;;;;;;3.33;1.43;;;;;;;;;;5013302;28;20187;-68
2023/09/22 10:52:53;;;;;;;1.77;1.27;;;;;;;;;;5012890;28;20186;-68
2023/09/22 10:55:38;;;;;;;3.53;1.50;;;;;;;;;;5014640;28;20208;-68
2023/09/22 10:58:06;;;;;;;4.17;1.40;;;;;;;;;;5015054;28;20636;-67
2023/09/22 11:00:35;;;;;;;1.97;1.30;;;;;;;;;;5012971;28;20190;-68
2023/09/22 11:03:08;;;;;;;2.23;1.40;;;;;;;;;;5012910;28;20588;-68
2023/09/22 11:05:35;;;;;;;2.10;1.40;;;;;;;;;;5012713;28;20231;-67
2023/09/22 11:08:04;;;;;;;1.87;1.40;;;;;;;;;;5012845;28;20216;-69
2023/09/22 11:10:31;;;;;;;5.43;1.60;;;;;;;;;;5012896;28;20508;-68
2023/09/22 11:12:57;;;;;;;3.00;1.60;;;;;;;;;;5014034;28;20250;-68
2023/09/22 11:15:23;;;;;;;5.83;1.23;;;;;;;;;;5012637;28;20239;-69
2023/09/22 11:17:49;;;;;;;2.53;1.57;;;;;;;;;;5014247;28;20234;-68
2023/09/22 11:20:22;;;;;;;1.50;1.30;;;;;;;;;;5014331;28;20552;-68
2023/09/22 11:22:48;;;;;;;1.77;1.30;;;;;;;;;;5014000;28;20172;-68
2023/09/22 11:25:14;;;;;;;1.43;1.20;;;;;;;;;;5028575;23;20262;-69
2023/09/22 11:27:50;;;;;;;1.80;1.20;;;;;;;;;;5012547;28;20222;-69
2023/09/22 11:30:19;;;;;;;2.83;1.43;;;;;;;;;;5012665;28;20180;-69
2023/09/22 11:32:45;;;;;;;3.43;1.43;;;;;;;;;;5013723;28;20172;-71
2023/09/22 11:35:32;;;;;;;3.93;1.80;;;;;;;;;;5012179;28;20682;-71
2023/09/22 11:37:58;;;;;;;3.70;1.53;;;;;;;;;;5012326;28;20180;-69
2023/09/22 11:40:28;;;;;;;1.93;1.20;;;;;;;;;;5013341;28;20191;-71
2023/09/22 11:42:54;;;;;;;1.60;1.30;;;;;;;;;;5012358;28;20184;-70
2023/09/22 11:45:23;;;;;;;3.10;1.60;;;;;;;;;;5013644;28;20208;-68
2023/09/22 11:47:49;;;;;;;2.73;1.50;;;;;;;;;;5013576;28;20172;-69
2023/09/22 11:50:25;;;;;;;2.23;1.40;;;;;;;;;;5012590;28;20234;-69
2023/09/22 11:52:51;;;;;;;3.20;1.80;;;;;;;;;;5013639;28;20637;-69
2023/09/22 11:55:17;;;;;;;2.60;1.27;;;;;;;;;;5013312;28;20207;-69
2023/09/22 11:57:42;;;;;;;2.33;1.30;;;;;;;;;;5012222;28;20179;-68
2023/09/22 12:00:13;;;;;;;2.07;1.20;;;;;;;;;;5013493;28;20184;-69
2023/09/22 12:02:39;;;;;;;4.40;1.50;;;;;;;;;;5013827;28;20227;-69
2023/09/22 12:05:07;;;;;;;1.97;1.50;;;;;;;;;;5012761;28;20215;-69
2023/09/22 12:07:33;;;;;;;3.87;1.40;;;;;;;;;;5013196;28;20176;-69
2023/09/22 12:09:59;;;;;;;3.90;1.40;;;;;;;;;;5012140;28;20230;-69
2023/09/22 12:12:25;;;;;;;6.13;1.43;;;;;;;;;;5011903;28;20195;-69
2023/09/22 12:14:51;;;;;;;1.93;1.50;;;;;;;;;;5013284;28;20209;-69
2023/09/22 12:17:17;;;;;;;2.20;1.50;;;;;;;;;;5011908;28;20307;-69
2023/09/22 12:19:43;;;;;;;1.33;1.23;;;;;;;;;;5013322;28;20736;-69
2023/09/22 12:22:09;;;;;;;2.43;1.47;;;;;;;;;;5013209;28;20180;-69
2023/09/22 12:24:35;;;;;;;2.63;1.50;;;;;;;;;;5013244;28;20692;-69
2023/09/22 12:27:03;;;;;;;2.97;1.63;;;;;;;;;;5013268;28;20650;-69
2023/09/22 12:29:29;;;;;;;1.23;1.13;;;;;;;;;;5013027;28;20176;-69
2023/09/22 12:31:55;;;;;;;2.10;1.50;;;;;;;;;;5012829;28;20502;-68
2023/09/22 12:34:21;;;;;;;2.33;1.63;;;;;;;;;;5011658;28;20625;-69
2023/09/22 12:36:47;;;;;;;1.57;1.40;;;;;;;;;;5013247;28;20172;-68
2023/09/22 12:39:13;;;;;;;2.17;1.57;;;;;;;;;;5011797;28;20184;-68
2023/09/22 12:41:39;;;;;;;5.23;1.60;;;;;;;;;;5013185;28;20171;-69
2023/09/22 12:44:05;;;;;;;3.80;1.50;;;;;;;;;;5013143;28;20176;-69
2023/09/22 12:46:31;;;;;;;2.17;1.80;;;;;;;;;;5013396;28;20638;-69
2023/09/22 12:48:57;;;;;;;2.83;1.50;;;;;;;;;;5012847;28;20188;-69
2023/09/22 12:51:23;;;;;;;3.43;1.80;;;;;;;;;;5012878;28;20186;-69
2023/09/22 12:53:49;;;;;;;3.07;1.40;;;;;;;;;;5012990;28;20183;-69
2023/09/22 12:56:15;;;;;;;4.33;1.43;;;;;;;;;;5012606;28;20192;-69
2023/09/22 12:58:41;;;;;;;5.53;1.50;;;;;;;;;;5013326;28;20592;-69
2023/09/22 13:01:11;;;;;;;1.93;1.30;;;;;;;;;;5011507;28;20559;-69
2023/09/22 13:03:37;;;;;;;2.03;1.30;;;;;;;;;;5012836;28;20204;-69
2023/09/22 13:06:03;;;;;;;3.27;1.40;;;;;;;;;;5012925;28;20243;-68
2023/09/22 13:08:29;;;;;;;2.00;1.60;;;;;;;;;;5013209;28;20254;-69
2023/09/22 13:10:55;;;;;;;2.83;1.50;;;;;;;;;;5011491;28;20210;-69
2023/09/22 13:13:21;;;;;;;2.90;1.30;;;;;;;;;;5012707;28;20234;-69
2023/09/22 13:15:48;;;;;;;2.73;1.57;;;;;;;;;;5015211;28;20204;-69
2023/09/22 13:18:18;;;;;;;2.67;1.80;;;;;;;;;;5016478;28;20180;-69
2023/09/22 13:20:45;;;;;;;7.13;1.60;;;;;;;;;;5016690;28;20183;-68
2023/09/22 13:23:11;;;;;;;2.10;1.53;;;;;;;;;;5014917;28;20234;-69
2023/09/22 13:25:41;;;;;;;1.73;1.37;;;;;;;;;;5015818;28;20630;-69
2023/09/22 13:28:07;;;;;;;2.27;1.40;;;;;;;;;;5016250;28;20176;-69
2023/09/22 13:30:35;;;;;;;2.53;1.57;;;;;;;;;;5014747;28;20176;-69
2023/09/22 13:33:01;;;;;;;6.03;1.60;;;;;;;;;;5015125;28;20215;-68
2023/09/22 13:35:28;;;;;;;2.60;1.50;;;;;;;;;;5014636;28;20665;-69
2023/09/22 13:37:54;;;;;;;2.47;1.70;;;;;;;;;;5014614;28;20175;-68
2023/09/22 13:40:21;;;;;;;1.60;1.47;;;;;;;;;;5014703;28;20535;-69
2023/09/22 13:42:47;;;;;;;2.20;2.00;;;;;;;;;;5015908;28;20176;-69
2023/09/22 13:45:13;;;;;;;1.90;1.40;;;;;;;;;;5014381;28;20566;-69
2023/09/22 13:47:39;;;;;;;3.23;1.60;;;;;;;;;;5014563;28;20183;-69
2023/09/22 13:50:05;;;;;;;5.87;1.57;;;;;;;;;;5015688;28;20239;-68
2023/09/22 13:52:31;;;;;;;2.63;1.33;;;;;;;;;;5015902;28;20187;-69
2023/09/22 13:54:57;;;;;;;1.90;1.70;;;;;;;;;;5015770;28;20200;-68
2023/09/22 13:57:25;;;;;;;4.30;1.33;;;;;;;;;;5015656;28;20187;-69
2023/09/22 13:59:53;;;;;;;5.87;1.83;;;;;;;;;;5015637;28;20176;-69
2023/09/22 14:02:19;;;;;;;3.50;1.30;;;;;;;;;;5014268;28;20661;-69
2023/09/22 14:04:45;;;;;;;4.07;1.60;;;;;;;;;;5014003;28;20243;-69
2023/09/22 14:07:11;;;;;;;3.23;2.00;;;;;;;;;;5015517;28;20197;-69
2023/09/22 14:09:37;;;;;;;2.03;1.53;;;;;;;;;;5015444;28;20175;-69
2023/09/22 14:12:05;;;;;;;1.83;1.60;;;;;;;;;;5015486;28;20263;-69
2023/09/22 14:14:31;;;;;;;2.17;1.57;;;;;;;;;;5014094;28;20184;-69
2023/09/22 14:16:57;;;;;;;2.73;1.80;;;;;;;;;;5016012;28;20184;-69
2023/09/22 14:19:23;;;;;;;2.07;1.40;;;;;;;;;;5015440;28;20186;-69
2023/09/22 14:21:49;;;;;;;3.23;1.50;;;;;;;;;;5015694;28;20190;-69
2023/09/22 14:24:16;;;;;;;4.20;1.80;;;;;;;;;;5013743;28;20180;-69
2023/09/22 14:26:43;;;;;;;2.53;1.73;;;;;;;;;;5014367;28;20249;-69
2023/09/22 14:29:08;;;;;;;2.90;1.43;;;;;;;;;;5014793;28;20233;-69
2023/09/22 14:31:35;;;;;;;2.93;1.60;;;;;;;;;;5015006;28;20179;-69
2023/09/22 14:34:00;;;;;;;3.33;1.50;;;;;;;;;;5013392;28;20638;-69
2023/09/22 14:36:27;;;;;;;2.47;1.50;;;;;;;;;;5013636;28;20210;-69
2023/09/22 14:38:53;;;;;;;2.23;1.53;;;;;;;;;;5013629;28;20199;-69
2023/09/22 14:41:19;;;;;;;2.27;1.40;;;;;;;;;;5013513;28;20278;-69
2023/09/22 14:43:45;;;;;;;1.67;1.30;;;;;;;;;;5014566;28;20180;-69